Time;durP1;ratioP1;P1;durP2;ratioP2;P2;SDS_P1;SDS_P2;PMS_P1;PMS_P2;Temp;Humidity;BMP_temperature;BMP_pressure;BME280_temperature;BME280_humidity;BME280_pressure;Samples;Min_cycle;Max_cycle;Signal;HPM_P1;HPM_P2
2023/06/11 00:01:08;;;;;;;8.80;4.45;;;24.10;57.50;;;;;;5053515;28;20033;-79
2023/06/11 00:03:36;;;;;;;7.63;4.38;;;24.00;57.60;;;;;;5053225;28;20393;-79
2023/06/11 00:06:02;;;;;;;7.75;4.40;;;24.00;57.70;;;;;;5053224;28;20473;-79
2023/06/11 00:08:28;;;;;;;6.35;4.35;;;23.90;57.80;;;;;;5054212;28;20067;-79
2023/06/11 00:10:53;;;;;;;9.95;5.05;;;23.90;58.00;;;;;;5053099;28;20561;-79
2023/06/11 00:13:19;;;;;;;7.63;4.85;;;23.80;58.10;;;;;;5054231;28;20041;-79
2023/06/11 00:15:44;;;;;;;8.63;4.75;;;23.80;58.30;;;;;;5054201;28;20485;-79
2023/06/11 00:18:10;;;;;;;8.85;5.57;;;23.80;58.50;;;;;;5054348;28;20044;-78
2023/06/11 00:20:40;;;;;;;7.65;5.18;;;23.70;58.50;;;;;;5053015;28;20424;-79
2023/06/11 00:23:06;;;;;;;7.05;4.82;;;23.70;58.60;;;;;;5054066;28;20036;-79
2023/06/11 00:25:32;;;;;;;8.60;5.40;;;23.60;58.70;;;;;;5036201;28;20389;-79
2023/06/11 00:27:58;;;;;;;8.82;5.70;;;23.60;59.00;;;;;;5036346;28;20044;-79
2023/06/11 00:30:24;;;;;;;6.95;4.80;;;23.50;59.20;;;;;;5052612;28;20029;-79
2023/06/11 00:32:49;;;;;;;8.15;4.78;;;23.50;59.40;;;;;;5052841;28;20025;-79
2023/06/11 00:35:16;;;;;;;7.18;4.93;;;23.50;59.50;;;;;;5052672;28;20025;-79
2023/06/11 00:37:42;;;;;;;8.13;5.25;;;23.40;59.60;;;;;;5035992;28;20036;-79
2023/06/11 00:40:09;;;;;;;8.30;5.43;;;23.30;59.80;;;;;;5053717;28;20059;-78
2023/06/11 00:42:34;;;;;;;7.85;4.95;;;23.30;59.80;;;;;;5035864;28;20473;-79
2023/06/11 00:45:03;;;;;;;9.18;4.93;;;23.30;59.90;;;;;;5053656;28;20075;-79
2023/06/11 00:47:29;;;;;;;7.47;4.78;;;23.30;60.00;;;;;;5052341;28;20108;-79
2023/06/11 00:49:56;;;;;;;7.78;5.07;;;23.30;60.20;;;;;;5052956;28;20381;-79
2023/06/11 00:52:22;;;;;;;7.40;5.18;;;23.20;60.30;;;;;;5053796;28;20029;-79
2023/06/11 00:54:48;;;;;;;8.43;5.90;;;23.20;60.40;;;;;;5053060;28;20036;-79
2023/06/11 00:57:17;;;;;;;8.40;4.95;;;23.10;60.60;;;;;;5035456;28;20029;-78
2023/06/11 00:59:48;;;;;;;10.35;5.57;;;23.20;60.80;;;;;;5053455;28;20029;-78
2023/06/11 01:02:21;;;;;;;11.23;5.28;;;23.10;60.80;;;;;;5052306;28;20028;-78
2023/06/11 01:04:51;;;;;;;8.20;5.15;;;23.10;60.80;;;;;;5053611;28;20046;-79
2023/06/11 01:07:18;;;;;;;7.13;5.13;;;23.00;60.90;;;;;;5053701;28;20032;-79
2023/06/11 01:09:45;;;;;;;9.55;5.97;;;23.00;61.00;;;;;;5051927;28;20049;-79
2023/06/11 01:12:12;;;;;;;7.30;4.85;;;23.00;61.10;;;;;;5051950;28;20485;-79
2023/06/11 01:14:39;;;;;;;7.30;5.18;;;23.00;61.40;;;;;;5052046;28;20486;-79
2023/06/11 01:17:24;;;;;;;8.82;5.57;;;23.00;61.60;;;;;;5053207;28;20040;-79
2023/06/11 01:19:58;;;;;;;5.75;4.65;;;22.90;61.60;;;;;;5051876;28;20112;-79
2023/06/11 01:23:04;;;;;;;8.02;4.80;;;22.90;61.70;;;;;;5051993;28;20025;-79
2023/06/11 01:26:05;;;;;;;8.75;5.20;;;22.80;61.80;;;;;;5053174;28;20013;-79
2023/06/11 01:28:33;;;;;;;8.25;5.70;;;22.80;61.90;;;;;;5053122;28;20039;-79
2023/06/11 01:31:04;;;;;;;6.22;4.68;;;22.70;61.80;;;;;;5052108;28;20046;-79
2023/06/11 01:33:35;;;;;;;9.15;5.00;;;22.70;62.10;;;;;;5053054;28;20032;-78
2023/06/11 01:36:01;;;;;;;8.95;5.10;;;22.70;62.20;;;;;;5052245;28;20033;-78
2023/06/11 01:38:30;;;;;;;9.93;5.63;;;22.70;62.30;;;;;;5053009;28;20021;-78
2023/06/11 01:40:58;;;;;;;9.57;5.45;;;22.60;62.50;;;;;;5051842;28;20470;-78
2023/06/11 01:43:25;;;;;;;9.52;5.93;;;22.60;62.70;;;;;;5051809;28;20025;-78
2023/06/11 01:45:51;;;;;;;10.57;5.60;;;22.60;62.90;;;;;;5053103;28;20048;-78
2023/06/11 01:48:17;;;;;;;7.43;5.22;;;22.60;63.00;;;;;;5051875;28;20555;-78
2023/06/11 01:50:43;;;;;;;10.18;6.47;;;22.50;63.10;;;;;;5052969;28;20055;-78
2023/06/11 01:53:10;;;;;;;8.90;5.80;;;22.50;63.20;;;;;;5052096;28;20057;-77
2023/06/11 01:55:36;;;;;;;7.80;5.53;;;22.50;63.30;;;;;;5052843;28;20021;-78
2023/06/11 01:58:02;;;;;;;9.30;5.15;;;22.40;63.40;;;;;;5051404;28;20547;-78
2023/06/11 02:00:27;;;;;;;8.98;6.25;;;22.40;63.60;;;;;;5018416;28;20025;-78
2023/06/11 02:02:53;;;;;;;8.00;6.03;;;22.40;63.70;;;;;;5052847;28;20033;-78
2023/06/11 02:05:19;;;;;;;10.75;5.63;;;22.40;63.80;;;;;;5052727;28;20033;-78
2023/06/11 02:07:45;;;;;;;8.55;6.03;;;22.30;63.90;;;;;;5053971;28;20037;-78
2023/06/11 02:10:11;;;;;;;7.97;5.55;;;22.30;64.00;;;;;;5055501;28;20025;-78
2023/06/11 02:12:36;;;;;;;9.25;5.32;;;22.30;64.20;;;;;;5038754;28;20040;-78
2023/06/11 02:15:05;;;;;;;10.35;5.40;;;22.20;64.30;;;;;;5056373;28;20051;-78
2023/06/11 02:17:31;;;;;;;8.73;5.68;;;22.20;64.40;;;;;;5056357;28;20051;-78
2023/06/11 02:19:57;;;;;;;8.13;5.35;;;22.20;64.50;;;;;;5038357;28;20029;-78
2023/06/11 02:22:23;;;;;;;8.02;5.70;;;22.10;64.60;;;;;;5056390;28;20033;-79
2023/06/11 02:24:48;;;;;;;10.25;5.82;;;22.10;64.70;;;;;;5056362;28;20026;-78
2023/06/11 02:27:14;;;;;;;9.88;5.97;;;22.10;64.90;;;;;;5055131;28;20072;-79
2023/06/11 02:29:39;;;;;;;8.98;6.20;;;22.00;65.10;;;;;;5056286;28;20029;-79
2023/06/11 02:32:06;;;;;;;8.48;5.95;;;22.00;65.30;;;;;;5055176;28;20083;-79
2023/06/11 02:34:32;;;;;;;8.50;5.55;;;21.90;65.30;;;;;;5054913;28;20039;-78
2023/06/11 02:36:57;;;;;;;10.20;6.82;;;21.90;65.50;;;;;;5056314;28;20448;-79
2023/06/11 02:39:23;;;;;;;8.23;5.65;;;21.90;65.80;;;;;;5054984;28;20044;-79
2023/06/11 02:41:49;;;;;;;9.35;6.82;;;21.80;65.80;;;;;;5054796;28;20029;-79
2023/06/11 02:44:15;;;;;;;9.55;6.25;;;21.80;66.00;;;;;;5038373;28;20404;-79
2023/06/11 02:46:40;;;;;;;7.72;6.20;;;21.70;66.00;;;;;;5055058;28;20021;-79
2023/06/11 02:49:06;;;;;;;8.43;6.10;;;21.70;66.20;;;;;;5038463;28;20049;-79
2023/06/11 02:51:32;;;;;;;7.93;5.78;;;21.70;66.20;;;;;;5055905;28;20112;-79
2023/06/11 02:53:57;;;;;;;9.02;6.00;;;21.70;66.30;;;;;;5054427;28;20029;-78
2023/06/11 02:56:23;;;;;;;9.15;5.85;;;21.60;66.30;;;;;;5037883;28;20485;-78
2023/06/11 02:58:49;;;;;;;8.07;5.68;;;21.60;66.50;;;;;;5054455;28;20056;-79
2023/06/11 03:01:15;;;;;;;9.15;5.60;;;21.50;67.10;;;;;;5055738;28;20358;-78
2023/06/11 03:03:40;;;;;;;7.30;5.63;;;21.50;67.30;;;;;;5055630;28;20032;-78
2023/06/11 03:06:06;;;;;;;9.18;5.95;;;21.50;66.70;;;;;;5055778;28;20327;-79
2023/06/11 03:08:31;;;;;;;9.13;6.38;;;21.50;66.80;;;;;;5055269;28;20095;-78
2023/06/11 03:10:57;;;;;;;8.77;6.20;;;21.40;66.80;;;;;;5021250;28;20051;-78
2023/06/11 03:13:23;;;;;;;9.05;5.95;;;21.40;66.90;;;;;;5055480;28;20482;-79
2023/06/11 03:15:49;;;;;;;9.13;6.05;;;21.40;67.00;;;;;;5054141;28;20029;-79
2023/06/11 03:18:15;;;;;;;8.27;5.20;;;21.30;67.10;;;;;;5053630;28;20033;-78
2023/06/11 03:20:41;;;;;;;11.52;6.07;;;21.30;67.20;;;;;;5054318;28;20021;-78
2023/06/11 03:23:07;;;;;;;8.48;6.13;;;21.30;67.20;;;;;;5054272;28;20117;-79
2023/06/11 03:25:32;;;;;;;7.82;5.40;;;21.30;67.30;;;;;;5037450;28;20021;-79
2023/06/11 03:27:58;;;;;;;13.02;5.68;;;21.20;67.20;;;;;;5053791;28;20051;-78
2023/06/11 03:30:23;;;;;;;7.25;4.95;;;21.20;67.20;;;;;;5054923;28;20029;-78
2023/06/11 03:32:49;;;;;;;10.85;5.65;;;21.20;67.30;;;;;;5055099;28;20033;-78
2023/06/11 03:35:15;;;;;;;8.23;5.75;;;21.20;67.40;;;;;;5053819;28;20079;-78
2023/06/11 03:37:41;;;;;;;8.40;5.57;;;21.20;67.40;;;;;;5053604;28;20436;-78
2023/06/11 03:40:07;;;;;;;8.20;5.97;;;21.10;67.40;;;;;;5020528;28;20049;-78
2023/06/11 03:42:33;;;;;;;7.97;5.88;;;21.10;67.60;;;;;;5037069;28;20120;-79
2023/06/11 03:44:59;;;;;;;8.40;5.53;;;21.10;67.60;;;;;;5037069;28;20116;-78
2023/06/11 03:47:24;;;;;;;9.95;5.88;;;21.10;67.80;;;;;;5054613;28;20025;-79
2023/06/11 03:49:51;;;;;;;10.98;5.57;;;21.00;67.80;;;;;;5054584;28;20033;-78
2023/06/11 03:52:17;;;;;;;8.93;6.40;;;21.00;67.80;;;;;;5053370;28;20124;-78
2023/06/11 03:54:43;;;;;;;7.82;5.03;;;21.00;67.80;;;;;;5054659;28;20061;-79
2023/06/11 03:57:08;;;;;;;7.93;5.40;;;21.00;67.90;;;;;;5054540;28;20037;-78
2023/06/11 03:59:34;;;;;;;7.70;5.32;;;21.00;68.00;;;;;;5054463;28;20063;-78
2023/06/11 04:02:00;;;;;;;10.95;5.68;;;21.00;68.10;;;;;;5053388;28;20052;-78
2023/06/11 04:04:26;;;;;;;8.93;5.20;;;21.00;68.00;;;;;;5054385;28;20037;-77
2023/06/11 04:06:51;;;;;;;9.38;5.53;;;21.00;68.10;;;;;;5054321;28;20029;-77
2023/06/11 04:09:17;;;;;;;6.35;4.88;;;21.00;68.10;;;;;;5052882;28;20064;-77
2023/06/11 04:11:43;;;;;;;7.80;5.63;;;21.00;68.30;;;;;;5036484;28;20033;-77
2023/06/11 04:14:08;;;;;;;8.63;5.75;;;21.00;68.30;;;;;;5036586;28;20065;-78
2023/06/11 04:16:34;;;;;;;6.75;5.18;;;21.00;68.40;;;;;;5053052;28;20063;-78
2023/06/11 04:18:59;;;;;;;8.65;5.28;;;20.90;68.30;;;;;;5053933;28;20032;-78
2023/06/11 04:21:25;;;;;;;8.88;6.05;;;20.90;68.30;;;;;;5054174;28;20098;-78
2023/06/11 04:23:51;;;;;;;6.95;5.30;;;21.00;68.40;;;;;;5036272;28;20489;-78
2023/06/11 04:26:19;;;;;;;8.43;5.97;;;21.00;68.40;;;;;;5054472;28;20025;-78
2023/06/11 04:28:45;;;;;;;8.45;5.55;;;21.00;68.40;;;;;;5052389;28;20531;-78
2023/06/11 04:31:14;;;;;;;6.80;4.60;;;21.00;68.40;;;;;;5052473;28;20037;-78
2023/06/11 04:33:40;;;;;;;7.80;5.85;;;21.00;68.50;;;;;;5053584;28;20033;-79
2023/06/11 04:36:07;;;;;;;8.40;5.75;;;21.00;68.60;;;;;;5053221;28;20021;-78
2023/06/11 04:38:34;;;;;;;7.57;5.65;;;21.00;68.60;;;;;;5051329;28;20033;-78
2023/06/11 04:41:00;;;;;;;8.50;5.90;;;21.00;68.50;;;;;;5053294;28;20021;-79
2023/06/11 04:43:26;;;;;;;8.13;5.50;;;21.00;68.50;;;;;;5053693;28;20084;-78
2023/06/11 04:45:59;;;;;;;9.07;5.55;;;21.00;68.40;;;;;;5052649;28;20025;-78
2023/06/11 04:48:27;;;;;;;9.30;5.37;;;21.10;68.60;;;;;;5053096;28;20029;-78
2023/06/11 04:50:55;;;;;;;8.27;5.55;;;21.10;68.50;;;;;;5052372;28;20283;-78
2023/06/11 04:53:21;;;;;;;9.10;4.95;;;21.10;68.50;;;;;;5052456;28;20079;-78
2023/06/11 04:55:57;;;;;;;8.20;5.95;;;21.10;68.50;;;;;;5053514;28;20089;-78
2023/06/11 04:58:27;;;;;;;8.20;5.72;;;21.10;68.50;;;;;;5053455;28;20072;-78
2023/06/11 05:00:57;;;;;;;8.88;5.80;;;21.10;68.50;;;;;;5052124;28;20469;-78
2023/06/11 05:03:24;;;;;;;8.55;5.55;;;21.10;68.50;;;;;;5052357;28;20025;-78
2023/06/11 05:05:51;;;;;;;8.13;5.10;;;21.20;68.50;;;;;;5052193;28;20493;-78
2023/06/11 05:08:28;;;;;;;8.82;5.90;;;21.20;68.50;;;;;;5052114;28;20541;-78
2023/06/11 05:10:57;;;;;;;6.47;5.10;;;21.20;68.50;;;;;;5052118;28;20151;-78
2023/06/11 05:13:26;;;;;;;7.80;5.25;;;21.20;68.40;;;;;;5053328;28;20392;-78
2023/06/11 05:15:52;;;;;;;8.13;5.57;;;21.20;68.50;;;;;;5052007;28;20029;-78
2023/06/11 05:18:18;;;;;;;8.45;5.55;;;21.30;68.50;;;;;;5053105;28;20032;-78
2023/06/11 05:20:45;;;;;;;10.60;5.32;;;21.30;68.50;;;;;;5053293;28;20079;-78
2023/06/11 05:23:10;;;;;;;7.68;5.68;;;21.30;68.40;;;;;;5053155;28;20061;-78
2023/06/11 05:25:46;;;;;;;6.60;5.35;;;21.30;68.40;;;;;;5053167;28;20458;-78
2023/06/11 05:28:12;;;;;;;7.72;5.53;;;21.30;68.40;;;;;;5053065;28;20021;-79
2023/06/11 05:30:38;;;;;;;9.20;5.65;;;21.30;68.30;;;;;;5035459;28;20427;-78
2023/06/11 05:33:05;;;;;;;8.43;5.60;;;21.40;68.30;;;;;;5053051;28;20029;-79
2023/06/11 05:35:30;;;;;;;8.43;6.22;;;21.40;68.30;;;;;;5051816;28;20404;-78
2023/06/11 05:37:57;;;;;;;8.27;5.95;;;21.50;68.30;;;;;;5051853;28;20033;-78
2023/06/11 05:40:23;;;;;;;9.20;5.97;;;21.40;68.20;;;;;;5053567;28;20025;-78
2023/06/11 05:42:49;;;;;;;8.77;5.57;;;21.50;68.30;;;;;;5057056;28;20092;-78
2023/06/11 05:45:15;;;;;;;8.70;5.47;;;21.50;68.20;;;;;;5055425;28;20049;-78
2023/06/11 05:47:41;;;;;;;8.65;6.00;;;21.50;68.20;;;;;;5043128;28;20021;-78
2023/06/11 05:50:07;;;;;;;8.73;5.32;;;21.50;68.20;;;;;;5047052;28;20083;-78
2023/06/11 05:52:33;;;;;;;7.72;5.53;;;21.60;68.20;;;;;;5056737;28;20029;-79
2023/06/11 05:54:59;;;;;;;7.53;6.05;;;21.60;68.20;;;;;;5055593;28;20339;-79
2023/06/11 05:57:25;;;;;;;6.95;5.20;;;21.70;68.30;;;;;;5056558;28;20446;-79
2023/06/11 05:59:51;;;;;;;9.43;6.07;;;21.60;68.20;;;;;;5055440;28;20393;-79
2023/06/11 06:02:18;;;;;;;7.30;5.82;;;21.70;68.20;;;;;;5055145;28;20029;-79
2023/06/11 06:04:48;;;;;;;8.77;5.70;;;21.70;68.10;;;;;;5056819;28;20151;-78
2023/06/11 06:07:14;;;;;;;7.65;5.72;;;21.70;68.10;;;;;;5056424;28;20020;-79
2023/06/11 06:09:40;;;;;;;7.80;5.60;;;21.70;68.00;;;;;;5053428;28;20114;-79
2023/06/11 06:12:06;;;;;;;7.72;5.60;;;21.80;68.10;;;;;;5045911;28;20482;-79
2023/06/11 06:14:32;;;;;;;8.25;5.70;;;21.80;68.10;;;;;;5018955;28;20057;-80
2023/06/11 06:16:57;;;;;;;7.43;5.60;;;21.80;68.00;;;;;;5036496;28;20516;-80
2023/06/11 06:19:23;;;;;;;7.38;5.43;;;21.80;68.00;;;;;;5036645;28;20041;-82
2023/06/11 06:21:49;;;;;;;7.85;5.80;;;21.90;68.00;;;;;;5035207;28;20060;-79
2023/06/11 06:24:14;;;;;;;9.90;6.40;;;21.90;68.20;;;;;;5035328;28;20565;-80
2023/06/11 06:26:43;;;;;;;10.18;6.68;;;21.90;68.10;;;;;;5039756;28;20108;-80
2023/06/11 06:29:13;;;;;;;8.48;6.40;;;22.00;68.10;;;;;;5048480;28;20028;-80
2023/06/11 06:31:40;;;;;;;8.32;5.57;;;22.00;68.20;;;;;;5054612;28;20036;-80
2023/06/11 06:34:07;;;;;;;8.00;5.45;;;22.10;68.40;;;;;;5056403;28;20500;-80
2023/06/11 06:36:33;;;;;;;7.13;5.55;;;22.10;68.40;;;;;;5056289;28;20037;-80
2023/06/11 06:38:58;;;;;;;8.40;5.63;;;22.10;68.40;;;;;;5038050;28;20036;-81
2023/06/11 06:41:24;;;;;;;9.20;6.30;;;22.10;68.90;;;;;;5056083;28;20025;-80
2023/06/11 06:43:50;;;;;;;7.65;5.32;;;22.20;68.40;;;;;;5054638;28;20029;-79
2023/06/11 06:46:16;;;;;;;6.90;5.53;;;22.20;68.40;;;;;;5038101;28;20017;-78
2023/06/11 06:48:41;;;;;;;8.27;5.45;;;22.30;68.50;;;;;;5055851;28;20033;-79
2023/06/11 06:51:07;;;;;;;8.20;5.90;;;22.30;68.40;;;;;;5055914;28;20065;-79
2023/06/11 06:53:33;;;;;;;7.22;5.38;;;22.40;68.40;;;;;;5054963;28;20428;-80
2023/06/11 06:56:00;;;;;;;7.97;6.07;;;22.40;68.50;;;;;;5055757;28;20029;-80
2023/06/11 06:58:27;;;;;;;8.82;5.38;;;22.40;68.50;;;;;;5055520;28;20108;-79
2023/06/11 07:00:53;;;;;;;7.72;5.85;;;22.50;68.40;;;;;;5054479;28;20029;-79
2023/06/11 07:03:18;;;;;;;10.07;6.00;;;22.60;68.40;;;;;;5055450;28;20481;-81
2023/06/11 07:05:44;;;;;;;7.93;6.05;;;22.60;68.20;;;;;;5054317;28;20083;-79
2023/06/11 07:08:12;;;;;;;8.45;5.53;;;22.70;68.20;;;;;;5054985;28;20040;-80
2023/06/11 07:10:40;;;;;;;8.38;6.05;;;22.70;68.10;;;;;;5026605;28;20029;-80
2023/06/11 07:13:10;;;;;;;11.27;6.10;;;22.80;68.20;;;;;;5034072;28;20037;-80
2023/06/11 07:15:35;;;;;;;8.27;5.55;;;22.80;68.10;;;;;;5035401;28;20026;-80
2023/06/11 07:18:01;;;;;;;11.43;5.45;;;22.90;68.00;;;;;;5034331;28;20132;-80
2023/06/11 07:20:26;;;;;;;8.15;6.32;;;22.90;68.00;;;;;;5043366;28;20040;-79
2023/06/11 07:22:52;;;;;;;8.02;5.50;;;23.00;68.00;;;;;;5035401;28;20144;-81
2023/06/11 07:25:18;;;;;;;8.27;5.90;;;23.00;68.00;;;;;;5046734;28;20507;-80
2023/06/11 07:27:43;;;;;;;9.18;5.47;;;23.00;67.90;;;;;;5053614;28;20036;-81
2023/06/11 07:30:10;;;;;;;7.53;5.45;;;23.10;67.90;;;;;;5034129;28;20437;-81
2023/06/11 07:32:36;;;;;;;8.52;5.88;;;23.20;67.70;;;;;;5020381;28;20045;-82
2023/06/11 07:35:02;;;;;;;8.40;5.70;;;23.30;67.60;;;;;;5042139;28;20037;-80
2023/06/11 07:37:27;;;;;;;10.82;6.45;;;23.30;67.50;;;;;;5053903;28;20036;-79
2023/06/11 07:39:53;;;;;;;7.55;5.03;;;23.30;67.30;;;;;;5037457;28;20381;-80
2023/06/11 07:42:18;;;;;;;7.80;5.60;;;23.40;67.30;;;;;;5034060;28;20428;-80
2023/06/11 07:44:44;;;;;;;8.85;5.93;;;23.40;67.20;;;;;;5033779;28;20037;-80
2023/06/11 07:47:10;;;;;;;9.85;6.15;;;23.50;67.10;;;;;;5033776;28;20022;-82
2023/06/11 07:49:35;;;;;;;7.57;5.72;;;23.60;67.10;;;;;;5018129;28;20044;-80
2023/06/11 07:52:01;;;;;;;7.97;5.70;;;23.60;67.00;;;;;;5016913;28;20036;-79
2023/06/11 07:54:27;;;;;;;9.18;6.05;;;23.70;67.00;;;;;;5016974;28;20505;-80
2023/06/11 07:56:53;;;;;;;7.57;5.65;;;23.80;66.90;;;;;;5034715;28;20179;-80
2023/06/11 07:59:19;;;;;;;6.65;5.00;;;23.80;66.90;;;;;;5050627;28;20549;-80
2023/06/11 08:01:44;;;;;;;8.18;5.78;;;23.80;66.90;;;;;;5036644;28;20481;-79
2023/06/11 08:04:10;;;;;;;9.48;5.97;;;23.90;66.80;;;;;;5053140;28;20025;-80
2023/06/11 08:06:36;;;;;;;7.25;5.25;;;23.90;66.90;;;;;;5036524;28;20025;-79
2023/06/11 08:09:01;;;;;;;7.03;5.30;;;24.00;66.90;;;;;;5052946;28;20083;-80
2023/06/11 08:11:28;;;;;;;7.70;5.60;;;24.10;66.60;;;;;;5050237;28;20033;-80
2023/06/11 08:13:53;;;;;;;9.68;6.18;;;24.20;66.50;;;;;;5049716;28;20473;-80
2023/06/11 08:16:19;;;;;;;9.52;5.35;;;24.20;66.40;;;;;;5041467;28;20026;-81
2023/06/11 08:18:45;;;;;;;9.05;5.47;;;24.30;66.20;;;;;;5053230;28;20111;-79
2023/06/11 08:21:10;;;;;;;7.60;5.10;;;24.40;66.00;;;;;;5037862;28;20050;-79
2023/06/11 08:23:38;;;;;;;8.90;5.55;;;24.40;65.80;;;;;;5038316;28;20392;-81
2023/06/11 08:26:04;;;;;;;7.72;5.78;;;24.50;65.80;;;;;;5073432;28;20029;-81
2023/06/11 08:28:30;;;;;;;14.05;5.95;;;24.60;65.80;;;;;;5073773;28;20051;-80
2023/06/11 08:30:56;;;;;;;11.70;5.88;;;24.60;65.60;;;;;;5072816;28;20060;-75
2023/06/11 08:33:22;;;;;;;7.53;5.30;;;24.70;65.60;;;;;;5072402;28;20032;-80
2023/06/11 08:35:47;;;;;;;16.55;6.05;;;24.80;65.30;;;;;;5073767;28;20036;-80
2023/06/11 08:38:13;;;;;;;8.60;5.47;;;24.90;65.10;;;;;;5073699;28;20464;-80
2023/06/11 08:40:41;;;;;;;7.30;4.72;;;25.00;65.10;;;;;;5061093;28;20159;-81
2023/06/11 08:43:10;;;;;;;6.75;5.22;;;25.00;64.60;;;;;;5035787;28;20377;-80
2023/06/11 08:45:36;;;;;;;7.70;4.85;;;25.10;64.40;;;;;;5052373;28;20102;-82
2023/06/11 08:48:04;;;;;;;9.18;5.13;;;25.20;64.30;;;;;;5053525;28;20112;-81
2023/06/11 08:50:31;;;;;;;7.70;5.07;;;25.20;64.10;;;;;;5053665;28;20057;-82
2023/06/11 08:53:00;;;;;;;9.50;5.07;;;25.40;63.90;;;;;;5035890;28;20021;-81
2023/06/11 08:55:27;;;;;;;8.68;5.53;;;25.40;63.70;;;;;;5052360;28;20036;-79
2023/06/11 08:57:53;;;;;;;10.65;5.57;;;25.50;63.60;;;;;;5049406;28;20504;-81
2023/06/11 09:00:19;;;;;;;9.07;5.18;;;25.60;63.60;;;;;;5053109;28;20044;-79
2023/06/11 09:02:45;;;;;;;7.63;5.35;;;25.70;63.50;;;;;;5043980;28;20025;-82
2023/06/11 09:05:11;;;;;;;8.07;4.90;;;25.70;63.20;;;;;;5039539;28;20060;-81
2023/06/11 09:07:36;;;;;;;6.53;4.90;;;25.80;63.00;;;;;;5032612;28;20483;-80
2023/06/11 09:10:03;;;;;;;7.72;4.80;;;25.90;62.90;;;;;;5039242;28;20049;-79
2023/06/11 09:12:29;;;;;;;10.60;4.85;;;26.00;63.00;;;;;;5015729;28;20029;-82
2023/06/11 09:14:54;;;;;;;8.98;5.72;;;26.10;62.90;;;;;;5033039;28;20116;-79
2023/06/11 09:17:20;;;;;;;7.35;5.07;;;26.20;62.80;;;;;;5016059;28;20032;-80
2023/06/11 09:19:46;;;;;;;10.52;4.68;;;26.30;62.70;;;;;;5032398;28;20037;-82
2023/06/11 09:22:12;;;;;;;7.93;5.00;;;26.30;62.50;;;;;;5033827;28;20123;-82
2023/06/11 09:24:37;;;;;;;7.10;4.78;;;26.40;62.30;;;;;;5032379;28;20132;-80
2023/06/11 09:27:06;;;;;;;6.68;4.45;;;26.40;62.00;;;;;;5032283;28;20045;-82
2023/06/11 09:29:34;;;;;;;6.28;4.57;;;26.40;61.90;;;;;;5033663;28;20033;-83
2023/06/11 09:32:03;;;;;;;5.53;4.47;;;26.50;61.90;;;;;;5033624;28;20039;-81
2023/06/11 09:34:29;;;;;;;6.38;4.43;;;26.60;61.90;;;;;;5035685;28;20481;-81
2023/06/11 09:36:55;;;;;;;7.15;4.43;;;26.60;61.90;;;;;;5053637;28;20051;-81
2023/06/11 09:39:21;;;;;;;8.30;5.00;;;26.70;61.90;;;;;;5020601;28;20450;-80
2023/06/11 09:41:48;;;;;;;6.82;4.30;;;26.70;61.70;;;;;;5033821;28;20025;-80
2023/06/11 09:44:18;;;;;;;8.20;4.78;;;26.80;61.50;;;;;;5033594;28;20018;-81
2023/06/11 09:46:44;;;;;;;6.05;4.28;;;26.90;61.30;;;;;;5032207;28;20026;-82
2023/06/11 09:49:12;;;;;;;6.80;4.50;;;27.00;61.00;;;;;;5021250;28;20064;-83
2023/06/11 09:51:39;;;;;;;7.05;4.30;;;27.00;60.60;;;;;;5051203;28;20029;-81
2023/06/11 09:54:09;;;;;;;5.50;4.47;;;27.10;60.40;;;;;;5052679;28;20477;-81
2023/06/11 09:56:38;;;;;;;6.25;3.97;;;27.20;60.40;;;;;;5051389;28;20135;-81
2023/06/11 09:59:05;;;;;;;6.40;4.20;;;27.20;60.30;;;;;;5035988;28;20021;-83
2023/06/11 10:01:31;;;;;;;5.97;4.30;;;27.30;60.10;;;;;;5035393;28;20021;-82
2023/06/11 10:03:58;;;;;;;6.78;4.00;;;27.40;59.70;;;;;;5052507;28;20040;-82
2023/06/11 10:06:29;;;;;;;7.25;4.65;;;27.40;59.30;;;;;;5053786;28;20024;-81
2023/06/11 10:08:58;;;;;;;6.80;4.22;;;27.50;59.20;;;;;;5051792;28;20053;-83
2023/06/11 10:11:24;;;;;;;6.07;4.03;;;27.60;58.90;;;;;;5051916;28;20036;-83
2023/06/11 10:14:00;;;;;;;5.85;4.32;;;27.60;58.60;;;;;;5052996;28;20378;-83
2023/06/11 10:16:30;;;;;;;5.88;4.03;;;27.70;58.30;;;;;;5051601;28;20397;-84
2023/06/11 10:19:10;;;;;;;9.10;4.05;;;27.70;58.10;;;;;;5035497;28;20482;-83
2023/06/11 10:21:43;;;;;;;7.05;4.07;;;27.80;57.70;;;;;;5050721;28;20036;-81
2023/06/11 10:24:20;;;;;;;5.38;3.58;;;27.90;57.80;;;;;;5031781;28;20018;-83
2023/06/11 10:27:03;;;;;;;7.43;3.38;;;28.00;57.40;;;;;;5037255;28;20013;-84
2023/06/11 10:29:28;;;;;;;5.05;3.22;;;28.00;56.70;;;;;;5052177;28;20111;-83
2023/06/11 10:31:58;;;;;;;5.82;3.47;;;28.10;56.50;;;;;;5043881;28;20438;-84
2023/06/11 10:34:24;;;;;;;4.75;3.30;;;28.20;56.10;;;;;;5055360;28;20122;-85
2023/06/11 10:36:50;;;;;;;5.32;3.35;;;28.30;55.70;;;;;;5038312;28;20120;-84
2023/06/11 10:39:23;;;;;;;4.25;2.72;;;28.40;55.40;;;;;;5055019;28;20543;-83
2023/06/11 10:41:58;;;;;;;;;;;28.50;55.00;;;;;;5038879;28;20428;-81
2023/06/11 10:44:24;;;;;;;5.68;3.20;;;28.60;54.80;;;;;;5056136;28;19996;-81
2023/06/11 10:46:52;;;;;;;6.45;3.08;;;28.80;55.00;;;;;;5056076;28;20057;-82
2023/06/11 10:49:22;;;;;;;4.72;3.40;;;29.00;54.70;;;;;;5039249;28;20139;-82
2023/06/11 10:51:49;;;;;;;4.90;3.25;;;29.10;54.50;;;;;;5057641;28;20086;-84
2023/06/11 10:54:26;;;;;;;4.85;3.10;;;29.30;54.10;;;;;;5056432;28;20053;-82
2023/06/11 10:56:52;;;;;;;5.35;3.45;;;29.50;53.70;;;;;;5038470;28;20040;-81
2023/06/11 10:59:19;;;;;;;4.93;2.80;;;29.60;53.60;;;;;;5056372;28;20037;-82
2023/06/11 11:01:46;;;;;;;5.25;3.00;;;29.80;53.30;;;;;;5037272;28;20557;-82
2023/06/11 11:04:11;;;;;;;6.05;2.80;;;30.00;53.10;;;;;;5037539;28;20029;-82
2023/06/11 11:06:39;;;;;;;6.40;2.90;;;30.20;52.90;;;;;;5056345;28;20100;-83
2023/06/11 11:09:05;;;;;;;5.10;2.85;;;30.30;52.40;;;;;;5054820;28;20061;-75
2023/06/11 11:11:33;;;;;;;4.30;2.42;;;30.50;52.00;;;;;;5054960;28;20032;-75
2023/06/11 11:13:59;;;;;;;3.53;2.30;;;30.70;51.40;;;;;;5054370;28;20393;-75
2023/06/11 11:16:25;;;;;;;4.45;2.20;;;30.80;51.00;;;;;;5055339;28;20025;-75
2023/06/11 11:18:51;;;;;;;5.28;2.58;;;31.00;50.50;;;;;;5054090;28;20487;-75
2023/06/11 11:21:18;;;;;;;5.15;2.35;;;31.20;50.00;;;;;;5055568;28;20029;-76
2023/06/11 11:23:49;;;;;;;3.28;1.80;;;31.30;49.50;;;;;;5054383;28;20017;-75
2023/06/11 11:26:17;;;;;;;3.38;1.83;;;31.50;48.90;;;;;;5053956;28;20029;-75
2023/06/11 11:28:42;;;;;;;4.30;2.67;;;31.70;48.40;;;;;;5053803;28;20040;-76
2023/06/11 11:31:22;;;;;;;2.95;1.92;;;31.80;47.80;;;;;;5055150;28;20457;-75
2023/06/11 11:33:49;;;;;;;4.63;2.40;;;31.90;46.90;;;;;;5055194;28;20040;-76
2023/06/11 11:36:14;;;;;;;4.05;2.03;;;32.00;46.60;;;;;;5020914;28;20021;-76
2023/06/11 11:38:41;;;;;;;6.80;2.60;;;32.20;46.10;;;;;;5053437;28;20087;-76
2023/06/11 11:41:11;;;;;;;3.95;2.38;;;32.30;45.90;;;;;;5053621;28;20470;-75
2023/06/11 11:43:40;;;;;;;4.57;2.60;;;32.40;45.90;;;;;;5055046;28;20412;-75
2023/06/11 11:46:19;;;;;;;4.55;2.30;;;32.60;46.00;;;;;;5055224;28;20025;-74
2023/06/11 11:48:45;;;;;;;3.88;2.50;;;32.70;45.60;;;;;;5053537;28;20083;-76
2023/06/11 11:51:13;;;;;;;8.05;2.55;;;32.90;45.60;;;;;;5054644;28;20029;-74
2023/06/11 11:53:40;;;;;;;3.40;2.13;;;33.10;45.20;;;;;;5055170;28;20104;-76
2023/06/11 11:56:06;;;;;;;4.50;2.50;;;33.20;44.80;;;;;;5054687;28;20024;-76
2023/06/11 11:58:41;;;;;;;5.05;2.63;;;33.50;44.80;;;;;;5053260;28;20116;-75
2023/06/11 12:01:15;;;;;;;4.30;2.72;;;33.60;44.30;;;;;;5036727;28;20079;-75
2023/06/11 12:03:40;;;;;;;4.45;2.10;;;33.80;44.10;;;;;;5054559;28;20033;-74
2023/06/11 12:06:08;;;;;;;3.47;2.08;;;34.00;43.80;;;;;;5053091;28;20033;-75
2023/06/11 12:08:35;;;;;;;3.33;2.10;;;34.10;43.30;;;;;;5052878;28;20041;-75
2023/06/11 12:11:03;;;;;;;4.68;2.30;;;34.20;43.10;;;;;;5053021;28;20166;-75
2023/06/11 12:13:29;;;;;;;2.70;2.08;;;34.30;42.90;;;;;;5020453;28;20472;-74
2023/06/11 12:15:55;;;;;;;3.50;2.40;;;34.30;42.60;;;;;;5054465;28;20021;-74
2023/06/11 12:18:21;;;;;;;3.90;2.20;;;34.50;42.40;;;;;;5054069;28;20401;-75
2023/06/11 12:20:47;;;;;;;2.75;1.77;;;34.60;42.00;;;;;;5054295;28;20029;-76
2023/06/11 12:23:12;;;;;;;4.53;2.35;;;34.70;41.80;;;;;;5053947;28;20499;-76
2023/06/11 12:25:39;;;;;;;5.07;2.17;;;34.80;41.70;;;;;;5036396;28;20035;-75
2023/06/11 12:28:05;;;;;;;3.63;2.00;;;35.00;41.70;;;;;;5019847;28;20021;-77
2023/06/11 12:30:32;;;;;;;4.68;2.30;;;35.10;41.50;;;;;;5053978;28;20025;-74
2023/06/11 12:32:58;;;;;;;3.30;2.13;;;35.30;41.20;;;;;;5049718;28;20020;-76
2023/06/11 12:35:24;;;;;;;3.08;2.08;;;35.50;41.00;;;;;;5032101;28;20029;-75
2023/06/11 12:37:50;;;;;;;3.70;2.65;;;35.70;41.00;;;;;;5032035;28;20030;-76
2023/06/11 12:40:16;;;;;;;4.80;2.30;;;35.80;40.60;;;;;;5037205;28;20027;-77
2023/06/11 12:42:43;;;;;;;4.40;2.08;;;36.00;40.10;;;;;;5041489;28;20104;-76
2023/06/11 12:45:09;;;;;;;3.30;1.92;;;36.10;39.70;;;;;;5033040;28;20029;-76